Time;durP1;ratioP1;P1;durP2;ratioP2;P2;SDS_P1;SDS_P2;PMS_P1;PMS_P2;Temp;Humidity;BMP_temperature;BMP_pressure;BME280_temperature;BME280_humidity;BME280_pressure;Samples;Min_cycle;Max_cycle;Signal;HPM_P1;HPM_P2
2021/12/31 00:00:13;;;;;;;168.18;18.25;;;;;;;4.99;100.00;99200.31;4489189;31;20473;-76
2021/12/31 00:02:41;;;;;;;126.12;16.73;;;;;;;4.92;100.00;99205.03;4501159;31;20454;-76
2021/12/31 00:05:09;;;;;;;155.77;18.65;;;;;;;4.96;100.00;99216.06;4501156;31;20092;-75
2021/12/31 00:07:36;;;;;;;132.73;18.12;;;;;;;5.04;100.00;99215.59;4500925;31;20497;-75
2021/12/31 00:10:05;;;;;;;197.15;20.00;;;;;;;5.08;100.00;99217.94;4501204;31;20536;-76
2021/12/31 00:12:32;;;;;;;136.93;17.98;;;;;;;5.03;100.00;99230.38;4500816;31;20133;-75
2021/12/31 00:15:00;;;;;;;132.20;20.60;;;;;;;4.96;100.00;99221.25;4501119;31;20603;-75
2021/12/31 00:17:27;;;;;;;116.85;19.20;;;;;;;4.95;100.00;99227.38;4501066;31;20108;-75
2021/12/31 00:20:27;;;;;;;91.87;15.27;;;;;;;4.97;100.00;99221.16;4500766;31;20535;-75
2021/12/31 00:25:27;;;;;;;101.38;15.68;;;;;;;5.10;100.00;99212.66;4501036;31;20468;-76
2021/12/31 00:27:54;;;;;;;96.35;14.70;;;;;;;5.25;100.00;99222.09;4501123;31;20099;-75
2021/12/31 00:30:22;;;;;;;58.40;14.27;;;;;;;5.34;100.00;99210.34;4500927;31;20096;-75
2021/12/31 00:32:49;;;;;;;48.90;16.30;;;;;;;5.34;100.00;99210.34;4501158;31;20122;-75
2021/12/31 00:35:18;;;;;;;61.00;14.98;;;;;;;5.38;100.00;99214.44;4500838;31;20151;-75
2021/12/31 00:37:45;;;;;;;29.27;12.80;;;;;;;5.34;100.00;99215.53;4500698;31;20429;-76
2021/12/31 00:40:15;;;;;;;25.08;13.23;;;;;;;5.48;100.00;99212.94;4500838;31;20122;-75
2021/12/31 00:42:42;;;;;;;26.27;14.50;;;;;;;5.56;100.00;99211.66;4500817;31;20154;-75
2021/12/31 00:45:12;;;;;;;26.33;13.68;;;;;;;5.58;100.00;99215.81;4500832;31;20100;-75
2021/12/31 00:47:39;;;;;;;28.70;13.93;;;;;;;5.62;100.00;99217.28;4500750;31;20104;-75
2021/12/31 00:50:08;;;;;;;30.83;14.20;;;;;;;5.60;100.00;99213.97;4501014;31;20160;-76
2021/12/31 00:52:35;;;;;;;24.90;13.82;;;;;;;5.62;100.00;99209.50;4500807;31;20087;-76
2021/12/31 00:55:04;;;;;;;24.40;13.98;;;;;;;5.65;100.00;99214.50;4500566;31;20670;-75
2021/12/31 00:57:31;;;;;;;31.95;14.73;;;;;;;5.71;100.00;99217.63;4500676;31;20138;-76
2021/12/31 00:59:58;;;;;;;31.98;14.60;;;;;;;5.74;100.00;99220.91;4498163;31;20080;-76
2021/12/31 01:02:28;;;;;;;29.95;15.18;;;;;;;5.70;100.00;99219.41;4485064;31;20096;-76
2021/12/31 01:04:57;;;;;;;28.50;14.90;;;;;;;5.70;100.00;99216.81;4484999;32;20111;-75
2021/12/31 01:07:24;;;;;;;26.40;14.00;;;;;;;5.77;100.00;99218.09;4484582;31;20092;-76
2021/12/31 01:09:52;;;;;;;26.83;15.30;;;;;;;5.85;100.00;99223.66;4484606;31;20101;-75
2021/12/31 01:12:20;;;;;;;29.75;14.63;;;;;;;5.76;100.00;99226.00;4484694;31;20108;-76
2021/12/31 01:17:43;;;;;;;37.30;16.10;;;;;;;5.77;100.00;99231.09;4484681;32;20125;-76
2021/12/31 01:20:11;;;;;;;26.83;14.05;;;;;;;5.82;100.00;99230.81;4484876;31;20435;-76
2021/12/31 01:22:39;;;;;;;28.70;14.98;;;;;;;5.94;100.00;99231.81;4484495;32;20378;-76
2021/12/31 01:25:07;;;;;;;27.70;14.35;;;;;;;5.86;100.00;99238.34;4484919;31;20217;-76
2021/12/31 01:27:35;;;;;;;31.80;15.25;;;;;;;5.86;100.00;99237.50;4484641;31;20114;-76
2021/12/31 01:30:04;;;;;;;31.83;16.02;;;;;;;5.81;100.00;99236.94;4484657;31;20084;-76
2021/12/31 01:32:32;;;;;;;29.30;15.90;;;;;;;5.67;100.00;99232.59;4484478;31;20465;-75
2021/12/31 01:35:00;;;;;;;32.42;16.02;;;;;;;5.73;100.00;99227.03;4484586;31;20123;-76
2021/12/31 01:37:27;;;;;;;28.12;16.33;;;;;;;5.68;100.00;99227.31;4484316;31;20131;-75
2021/12/31 01:39:55;;;;;;;52.72;17.90;;;;;;;5.72;100.00;99233.13;4484304;31;20122;-75
2021/12/31 01:42:33;;;;;;;63.83;20.23;;;;;;;5.71;100.00;99226.28;4484168;31;20089;-75
2021/12/31 01:45:10;;;;;;;73.93;18.73;;;;;;;5.65;100.00;99234.47;4484609;31;20467;-75
2021/12/31 01:50:15;;;;;;;30.42;15.43;;;;;;;5.70;100.00;99240.22;4484664;31;20116;-76
2021/12/31 01:52:42;;;;;;;29.98;15.73;;;;;;;5.64;100.00;99240.59;4484094;31;20080;-75
2021/12/31 01:55:12;;;;;;;28.12;14.05;;;;;;;5.67;100.00;99235.19;4478512;31;190237;-75
2021/12/31 01:57:40;;;;;;;28.45;14.75;;;;;;;5.71;100.00;99239.28;4484121;31;20493;-75
2021/12/31 02:00:09;;;;;;;28.98;14.63;;;;;;;5.63;100.00;99236.31;4487488;31;20088;-75
2021/12/31 02:02:37;;;;;;;28.50;14.27;;;;;;;5.69;100.00;99239.37;4498582;31;20176;-75
2021/12/31 02:05:05;;;;;;;26.67;14.85;;;;;;;5.75;100.00;99226.94;4500040;31;20120;-75
2021/12/31 02:07:36;;;;;;;28.20;14.02;;;;;;;5.77;100.00;99225.06;4500761;31;20143;-76
2021/12/31 02:10:04;;;;;;;28.73;14.50;;;;;;;5.77;100.00;99220.72;4501781;31;20084;-76
2021/12/31 02:12:32;;;;;;;26.70;14.50;;;;;;;5.82;100.00;99233.41;4501782;31;20123;-76
2021/12/31 02:14:59;;;;;;;25.00;14.35;;;;;;;5.80;100.00;99238.72;4501924;31;20185;-76
2021/12/31 02:17:26;;;;;;;31.70;14.43;;;;;;;5.86;100.00;99233.13;4501681;31;20126;-76
2021/12/31 02:20:04;;;;;;;24.95;14.10;;;;;;;5.96;100.00;99225.56;4501959;31;20660;-76
2021/12/31 02:22:35;;;;;;;25.45;13.55;;;;;;;6.01;100.00;99227.91;4501867;31;20091;-76
2021/12/31 02:25:02;;;;;;;28.05;13.98;;;;;;;5.97;100.00;99222.09;4501904;31;20111;-76
2021/12/31 02:27:29;;;;;;;25.27;13.75;;;;;;;5.94;100.00;99224.03;4501974;31;20115;-76
2021/12/31 02:29:57;;;;;;;25.50;13.80;;;;;;;5.99;100.00;99227.19;4501762;31;20112;-76
2021/12/31 02:32:24;;;;;;;26.75;14.02;;;;;;;5.92;100.00;99218.91;4502004;31;20088;-76
2021/12/31 02:34:51;;;;;;;26.15;12.73;;;;;;;5.94;100.00;99224.84;4501761;31;20092;-75
2021/12/31 02:37:19;;;;;;;23.67;11.77;;;;;;;5.94;100.00;99213.63;4501639;31;20541;-76
2021/12/31 02:39:46;;;;;;;23.80;13.65;;;;;;;5.92;100.00;99220.66;4501642;31;20115;-76
2021/12/31 02:42:13;;;;;;;24.12;12.50;;;;;;;5.84;100.00;99211.59;4501416;31;20087;-75
2021/12/31 02:44:42;;;;;;;22.35;11.85;;;;;;;5.78;100.00;99211.97;4501777;31;20134;-75
2021/12/31 02:47:09;;;;;;;23.60;12.45;;;;;;;5.77;100.00;99207.72;4501614;31;20780;-76
2021/12/31 02:49:40;;;;;;;23.98;12.27;;;;;;;5.69;100.00;99212.53;4501709;31;20794;-76
2021/12/31 02:52:11;;;;;;;21.23;11.90;;;;;;;5.72;100.00;99204.53;4501930;31;20554;-76
2021/12/31 02:54:41;;;;;;;25.60;13.52;;;;;;;5.67;100.00;99197.03;4501742;31;20092;-75
2021/12/31 02:57:09;;;;;;;25.42;12.50;;;;;;;5.62;100.00;99193.06;4501515;31;20548;-75
2021/12/31 02:59:36;;;;;;;20.45;11.68;;;;;;;5.60;100.00;99194.91;4500340;31;20083;-75
2021/12/31 03:02:06;;;;;;;24.37;13.40;;;;;;;5.60;100.00;99192.31;4485699;31;20440;-76
2021/12/31 03:04:38;;;;;;;22.87;12.65;;;;;;;5.61;100.00;99183.59;4486009;31;20080;-75
2021/12/31 03:07:07;;;;;;;24.33;12.85;;;;;;;5.54;100.00;99188.34;4485711;31;20092;-76
2021/12/31 03:09:36;;;;;;;25.17;12.50;;;;;;;5.51;100.00;99189.38;4485787;31;20163;-76
2021/12/31 03:12:04;;;;;;;21.92;11.50;;;;;;;5.50;100.00;99186.88;4484293;32;20124;-76
2021/12/31 03:14:31;;;;;;;23.55;12.35;;;;;;;5.54;100.00;99192.69;4485826;31;20115;-75
2021/12/31 03:16:59;;;;;;;22.80;12.15;;;;;;;5.57;100.00;99192.50;4485702;31;20461;-75
2021/12/31 03:19:27;;;;;;;21.15;11.90;;;;;;;5.62;100.00;99186.09;4483338;32;20089;-75
2021/12/31 03:21:54;;;;;;;23.80;11.43;;;;;;;5.66;100.00;99189.34;4485742;31;20093;-75
2021/12/31 03:24:21;;;;;;;18.90;10.52;;;;;;;5.57;100.00;99187.31;4485646;31;20715;-75
2021/12/31 03:26:49;;;;;;;13.93;8.10;;;;;;;5.50;100.00;99179.06;4485842;31;20169;-75
2021/12/31 03:29:16;;;;;;;14.50;7.43;;;;;;;5.76;100.00;99174.84;4485637;32;20088;-75
2021/12/31 03:31:43;;;;;;;15.00;7.15;;;;;;;6.30;100.00;99171.44;4485442;31;20088;-75
2021/12/31 03:34:13;;;;;;;15.38;8.32;;;;;;;6.70;100.00;99173.19;4485575;31;20093;-75
2021/12/31 03:36:43;;;;;;;13.95;8.05;;;;;;;7.04;100.00;99171.75;4485494;31;20121;-75
2021/12/31 03:39:11;;;;;;;14.63;8.52;;;;;;;7.21;100.00;99160.16;4485471;31;20092;-76
2021/12/31 03:41:39;;;;;;;16.15;8.45;;;;;;;7.37;100.00;99153.88;4485391;31;20092;-75
2021/12/31 03:44:07;;;;;;;16.37;8.50;;;;;;;7.44;100.00;99168.97;4485214;31;20097;-75
2021/12/31 03:46:34;;;;;;;15.35;8.38;;;;;;;7.51;100.00;99177.22;4485500;31;20145;-75
2021/12/31 03:49:02;;;;;;;11.85;7.93;;;;;;;7.60;100.00;99170.50;4485438;31;20084;-76
2021/12/31 03:51:29;;;;;;;15.32;9.15;;;;;;;7.67;100.00;99187.38;4485447;31;20161;-76
2021/12/31 03:53:56;;;;;;;16.60;8.70;;;;;;;7.68;100.00;99190.84;4485222;32;20092;-76
2021/12/31 03:56:29;;;;;;;12.70;7.90;;;;;;;7.66;100.00;99198.78;4485391;32;20096;-75
2021/12/31 03:58:58;;;;;;;17.48;9.43;;;;;;;7.55;100.00;99203.91;4485285;31;20126;-76
2021/12/31 04:01:27;;;;;;;15.55;9.27;;;;;;;7.54;100.00;99197.84;4497207;31;20119;-76
2021/12/31 04:03:55;;;;;;;18.12;9.57;;;;;;;7.46;100.00;99203.59;4501146;31;20110;-76
2021/12/31 04:06:23;;;;;;;16.40;10.85;;;;;;;7.37;100.00;99204.22;4501221;31;20088;-76
2021/12/31 04:08:50;;;;;;;15.32;9.82;;;;;;;7.26;100.00;99212.78;4500964;31;20084;-76
2021/12/31 04:11:18;;;;;;;19.37;10.45;;;;;;;7.09;100.00;99206.13;4499846;31;20123;-76
2021/12/31 04:13:46;;;;;;;16.58;9.77;;;;;;;7.00;100.00;99209.34;4500716;31;20092;-76
2021/12/31 04:16:13;;;;;;;19.73;10.43;;;;;;;6.87;100.00;99209.34;4501100;31;20088;-75
2021/12/31 04:18:40;;;;;;;24.40;10.23;;;;;;;6.86;100.00;99207.69;4500901;31;20139;-76
2021/12/31 04:21:08;;;;;;;19.40;10.13;;;;;;;6.79;100.00;99206.41;4501034;31;20092;-76
2021/12/31 04:23:47;;;;;;;17.87;9.32;;;;;;;6.67;100.00;99202.03;4500797;31;20100;-76
2021/12/31 04:26:15;;;;;;;18.50;10.23;;;;;;;6.70;100.00;99199.22;4500997;31;20435;-76
2021/12/31 04:28:43;;;;;;;16.62;9.30;;;;;;;6.71;100.00;99208.69;4500916;31;20138;-76
2021/12/31 04:31:11;;;;;;;17.55;10.05;;;;;;;6.71;100.00;99206.09;4500390;31;20835;-75
2021/12/31 04:33:38;;;;;;;18.60;9.52;;;;;;;6.75;100.00;99204.94;4500891;31;20092;-76
2021/12/31 04:36:05;;;;;;;17.00;9.80;;;;;;;6.73;100.00;99201.63;4501026;31;20088;-76
2021/12/31 04:38:32;;;;;;;18.65;9.07;;;;;;;6.68;100.00;99203.69;4500710;31;20129;-76
2021/12/31 04:41:00;;;;;;;19.95;9.63;;;;;;;6.64;100.00;99202.22;4500958;31;20108;-76
2021/12/31 04:43:27;;;;;;;21.33;10.70;;;;;;;6.67;100.00;99204.62;4500667;31;20091;-76
2021/12/31 04:45:54;;;;;;;18.58;10.00;;;;;;;6.62;100.00;99209.31;4500778;31;20088;-76
2021/12/31 04:48:22;;;;;;;18.37;10.20;;;;;;;6.62;100.00;99209.31;4500744;31;20453;-76
2021/12/31 04:50:50;;;;;;;17.90;10.10;;;;;;;6.59;100.00;99199.94;4500770;31;20452;-76
2021/12/31 04:53:17;;;;;;;18.48;9.65;;;;;;;6.55;100.00;99196.66;4500641;31;20114;-76
2021/12/31 04:55:44;;;;;;;21.02;11.05;;;;;;;6.49;100.00;99197.09;4500847;31;20153;-76
2021/12/31 04:58:12;;;;;;;18.95;10.07;;;;;;;6.49;100.00;99194.47;4500495;31;20088;-75
2021/12/31 05:00:39;;;;;;;19.45;10.27;;;;;;;6.66;100.00;99197.75;4493709;31;20488;-76
2021/12/31 05:03:11;;;;;;;16.87;9.68;;;;;;;6.62;100.00;99198.91;4484968;31;20114;-75
2021/12/31 05:05:38;;;;;;;17.10;9.55;;;;;;;6.68;100.00;99201.91;4484781;31;20096;-75
2021/12/31 05:08:05;;;;;;;16.85;9.38;;;;;;;6.71;100.00;99199.13;4484717;31;20119;-75
2021/12/31 05:10:33;;;;;;;15.45;9.23;;;;;;;6.79;100.00;99205.59;4484720;31;20141;-76
2021/12/31 05:13:02;;;;;;;15.15;9.93;;;;;;;6.83;100.00;99201.81;4484651;31;20096;-76
2021/12/31 05:15:34;;;;;;;16.17;9.43;;;;;;;6.88;100.00;99211.00;4484633;31;20123;-76
2021/12/31 05:18:02;;;;;;;15.38;9.38;;;;;;;6.85;100.00;99203.41;4484674;32;20138;-76
2021/12/31 05:20:29;;;;;;;15.13;9.55;;;;;;;6.79;100.00;99206.41;4484705;31;20092;-76
2021/12/31 05:23:00;;;;;;;14.57;8.80;;;;;;;6.74;100.00;99211.94;4484817;31;20088;-76
2021/12/31 05:25:28;;;;;;;15.00;9.43;;;;;;;6.75;100.00;99212.75;4484652;31;20172;-76
2021/12/31 05:27:55;;;;;;;18.25;9.05;;;;;;;6.70;100.00;99212.22;4484665;31;20114;-76
2021/12/31 05:30:22;;;;;;;16.67;9.10;;;;;;;6.69;100.00;99215.75;4484488;31;20088;-76
2021/12/31 05:32:51;;;;;;;16.20;9.23;;;;;;;6.70;100.00;99213.06;4484497;31;20736;-76
2021/12/31 05:35:18;;;;;;;15.45;8.93;;;;;;;6.67;100.00;99209.84;4484338;31;20091;-76
2021/12/31 05:37:45;;;;;;;17.30;9.05;;;;;;;6.63;100.00;99216.16;4484356;31;20164;-76
2021/12/31 05:40:13;;;;;;;16.95;9.60;;;;;;;6.61;100.00;99213.66;4484506;31;20108;-76
2021/12/31 05:42:40;;;;;;;16.17;8.75;;;;;;;6.61;100.00;99224.09;4485140;31;20096;-76
2021/12/31 05:45:09;;;;;;;16.37;8.57;;;;;;;6.53;100.00;99227.19;4486315;31;20457;-76
2021/12/31 05:47:38;;;;;;;15.15;8.95;;;;;;;6.55;100.00;99230.50;4486304;31;20102;-76
2021/12/31 05:50:08;;;;;;;16.10;7.97;;;;;;;6.52;100.00;99235.91;4486141;31;20631;-76
2021/12/31 05:52:35;;;;;;;12.82;8.35;;;;;;;6.45;100.00;99229.47;4486420;31;20470;-76
2021/12/31 05:55:05;;;;;;;15.05;8.63;;;;;;;6.41;100.00;99232.38;4486218;31;20431;-76
2021/12/31 05:57:32;;;;;;;15.48;8.15;;;;;;;6.32;100.00;99233.78;4486156;31;20097;-76
2021/12/31 05:59:59;;;;;;;13.48;8.10;;;;;;;6.32;100.00;99234.62;4488455;31;20122;-76
2021/12/31 06:02:26;;;;;;;15.75;8.48;;;;;;;6.37;100.00;99236.91;4502024;31;20627;-76
2021/12/31 06:04:54;;;;;;;16.67;7.85;;;;;;;6.37;100.00;99242.12;4501867;31;20163;-76
2021/12/31 06:07:21;;;;;;;15.07;7.87;;;;;;;6.36;100.00;99240.47;4501928;31;20084;-76
2021/12/31 06:09:48;;;;;;;13.77;8.05;;;;;;;6.39;100.00;99233.28;4501903;31;20130;-75
2021/12/31 06:12:15;;;;;;;13.05;7.82;;;;;;;6.36;100.00;99237.88;4501888;31;20588;-76
2021/12/31 06:14:42;;;;;;;13.95;7.65;;;;;;;6.30;100.00;99248.66;4501780;31;20117;-75
2021/12/31 06:17:11;;;;;;;12.95;8.32;;;;;;;6.34;100.00;99243.19;4501745;31;20092;-75
2021/12/31 06:19:38;;;;;;;13.85;8.52;;;;;;;6.21;100.00;99248.31;4501928;31;20458;-75
2021/12/31 06:22:09;;;;;;;12.48;8.05;;;;;;;6.26;100.00;99244.59;4501894;31;20088;-76
2021/12/31 06:24:36;;;;;;;13.55;8.15;;;;;;;6.34;100.00;99256.19;4501864;31;20095;-75
2021/12/31 06:27:04;;;;;;;15.88;8.88;;;;;;;6.49;100.00;99259.53;4501521;31;20465;-75
2021/12/31 06:29:31;;;;;;;15.75;8.77;;;;;;;6.52;100.00;99261.94;4501946;31;20092;-76
2021/12/31 06:31:58;;;;;;;16.70;8.40;;;;;;;6.44;100.00;99256.41;4501672;31;20096;-76
2021/12/31 06:34:26;;;;;;;14.15;8.45;;;;;;;6.48;100.00;99257.91;4501655;31;20565;-75
2021/12/31 06:36:54;;;;;;;13.23;7.80;;;;;;;6.49;100.00;99256.94;4501640;31;20156;-75
2021/12/31 06:39:21;;;;;;;14.75;8.13;;;;;;;6.50;100.00;99257.78;4501595;31;20168;-75
2021/12/31 06:41:48;;;;;;;12.95;7.93;;;;;;;6.50;100.00;99263.81;4501639;31;20100;-75
2021/12/31 06:44:15;;;;;;;12.82;7.78;;;;;;;6.39;100.00;99263.69;4502018;31;20600;-75
2021/12/31 06:46:42;;;;;;;14.13;7.90;;;;;;;6.47;100.00;99268.41;4501607;31;20107;-75
2021/12/31 06:49:10;;;;;;;13.45;8.02;;;;;;;6.41;100.00;99264.44;4501686;31;20158;-75
2021/12/31 06:51:38;;;;;;;12.70;7.62;;;;;;;6.47;100.00;99273.62;4501647;31;20087;-75
2021/12/31 06:54:05;;;;;;;15.77;7.40;;;;;;;6.68;100.00;99271.41;4501474;31;20111;-75
2021/12/31 06:56:32;;;;;;;12.60;7.53;;;;;;;6.69;100.00;99273.03;4501652;31;20114;-75
2021/12/31 06:58:59;;;;;;;15.38;7.47;;;;;;;6.78;100.00;99279.44;4501458;31;20168;-75
2021/12/31 07:01:26;;;;;;;9.75;5.75;;;;;;;6.84;100.00;99276.41;4489568;31;20088;-75
2021/12/31 07:03:54;;;;;;;9.80;5.87;;;;;;;6.89;100.00;99282.19;4485821;31;20609;-75
2021/12/31 07:06:21;;;;;;;10.07;6.12;;;;;;;6.96;100.00;99286.03;4485669;31;20415;-76
2021/12/31 07:08:49;;;;;;;11.60;6.80;;;;;;;7.00;100.00;99290.09;4485534;31;20092;-76
2021/12/31 07:11:20;;;;;;;13.82;6.55;;;;;;;7.08;100.00;99286.97;4485724;31;20084;-76
2021/12/31 07:13:47;;;;;;;10.65;6.80;;;;;;;7.18;100.00;99289.81;4485639;31;20084;-76
2021/12/31 07:16:14;;;;;;;10.93;6.80;;;;;;;7.39;100.00;99295.38;4486045;31;20100;-76
2021/12/31 07:18:41;;;;;;;10.85;5.82;;;;;;;7.39;100.00;99297.97;4485655;32;20160;-76
2021/12/31 07:21:08;;;;;;;11.35;6.87;;;;;;;7.42;100.00;99297.78;4485774;31;20088;-75
2021/12/31 07:23:35;;;;;;;13.43;7.30;;;;;;;7.52;100.00;99304.00;4485862;31;20119;-75
2021/12/31 07:26:03;;;;;;;10.75;6.62;;;;;;;7.50;100.00;99305.06;4485528;31;20131;-76
2021/12/31 07:28:30;;;;;;;10.65;5.80;;;;;;;7.39;100.00;99314.44;4485640;31;20108;-76
2021/12/31 07:30:57;;;;;;;10.35;5.90;;;;;;;7.53;100.00;99310.06;4485539;31;20280;-75
2021/12/31 07:33:24;;;;;;;11.93;6.20;;;;;;;7.70;100.00;99295.88;4485566;32;20165;-76
2021/12/31 07:35:52;;;;;;;10.43;6.85;;;;;;;7.79;100.00;99305.66;4485478;31;20077;-76
2021/12/31 07:38:40;;;;;;;11.57;6.50;;;;;;;7.82;100.00;99303.66;4485068;31;20107;-76
2021/12/31 07:41:08;;;;;;;11.07;5.85;;;;;;;7.93;100.00;99302.94;4485435;31;20163;-76
2021/12/31 07:43:35;;;;;;;8.88;5.22;;;;;;;7.99;100.00;99304.28;4485432;31;20088;-76
2021/12/31 07:46:02;;;;;;;10.68;6.25;;;;;;;8.04;100.00;99298.72;4485911;31;20088;-76
2021/12/31 07:48:29;;;;;;;12.27;5.32;;;;;;;8.15;100.00;99307.47;4485214;32;20200;-76
2021/12/31 07:50:56;;;;;;;8.68;5.47;;;;;;;8.28;100.00;99302.25;4484221;32;20097;-76
2021/12/31 07:53:23;;;;;;;8.57;5.53;;;;;;;8.39;100.00;99306.69;4485382;31;20097;-76
2021/12/31 07:55:51;;;;;;;9.23;5.32;;;;;;;8.54;100.00;99307.41;4485326;31;20144;-76
2021/12/31 07:58:18;;;;;;;7.25;5.22;;;;;;;8.69;100.00;99300.19;4485130;31;20112;-76
2021/12/31 08:00:45;;;;;;;8.15;5.32;;;;;;;8.76;100.00;99303.22;4492766;31;20813;-76
2021/12/31 08:03:15;;;;;;;9.13;5.87;;;;;;;8.86;100.00;99301.59;4501438;31;20115;-76
2021/12/31 08:05:42;;;;;;;9.63;5.43;;;;;;;8.89;100.00;99301.38;4500539;31;20092;-76
2021/12/31 08:08:09;;;;;;;11.23;5.72;;;;;;;8.88;100.00;99305.75;4500859;31;20434;-76
2021/12/31 08:10:40;;;;;;;9.73;6.00;;;;;;;8.95;100.00;99311.38;4501032;31;20131;-76
2021/12/31 08:13:25;;;;;;;8.60;5.97;;;;;;;8.98;100.00;99313.75;4501061;31;20072;-76
2021/12/31 08:15:53;;;;;;;10.85;6.60;;;;;;;8.99;100.00;99311.97;4501325;31;20106;-76
2021/12/31 08:18:21;;;;;;;10.93;6.80;;;;;;;8.94;100.00;99303.66;4501148;31;20118;-76
2021/12/31 08:20:48;;;;;;;11.23;6.87;;;;;;;8.99;100.00;99306.75;4501000;31;20123;-76
2021/12/31 08:23:15;;;;;;;11.10;6.45;;;;;;;9.06;100.00;99302.72;4500937;31;20100;-76
2021/12/31 08:25:42;;;;;;;11.52;6.85;;;;;;;9.10;100.00;99306.78;4500854;31;20115;-76
2021/12/31 08:28:10;;;;;;;12.37;6.62;;;;;;;9.15;100.00;99309.06;4500895;31;20131;-76
2021/12/31 08:30:38;;;;;;;10.02;6.22;;;;;;;9.19;100.00;99303.47;4501025;31;20176;-76
2021/12/31 08:33:05;;;;;;;10.63;6.00;;;;;;;9.20;100.00;99307.75;4500861;31;20127;-76
2021/12/31 08:35:32;;;;;;;10.27;5.90;;;;;;;9.29;100.00;99302.78;4500885;31;20122;-76
2021/12/31 08:38:00;;;;;;;8.98;5.43;;;;;;;9.29;100.00;99310.62;4500666;31;20122;-76
2021/12/31 08:40:27;;;;;;;10.30;5.53;;;;;;;9.39;100.00;99303.78;4500743;31;20187;-76
2021/12/31 08:42:54;;;;;;;8.15;5.28;;;;;;;9.42;100.00;99308.75;4500759;31;20096;-76
2021/12/31 08:45:31;;;;;;;8.18;5.40;;;;;;;9.53;100.00;99294.88;4500932;31;20564;-76
2021/12/31 08:47:58;;;;;;;12.57;5.82;;;;;;;9.54;100.00;99297.38;4499532;31;20459;-76
2021/12/31 08:50:26;;;;;;;8.70;5.43;;;;;;;9.65;100.00;99288.69;4500746;31;20146;-76
2021/12/31 08:52:54;;;;;;;6.62;4.35;;;;;;;9.67;100.00;99289.38;4500758;31;20092;-76
2021/12/31 08:55:21;;;;;;;8.43;4.53;;;;;;;9.76;100.00;99288.72;4500899;31;20144;-76
2021/12/31 08:57:48;;;;;;;6.47;4.53;;;;;;;9.86;100.00;99285.37;4500678;31;20100;-76
2021/12/31 09:00:16;;;;;;;8.90;5.43;;;;;;;9.92;100.00;99284.87;4496482;31;20100;-76
2021/12/31 09:02:45;;;;;;;7.95;5.35;;;;;;;10.02;100.00;99292.84;4484834;31;20080;-76
2021/12/31 09:05:13;;;;;;;7.60;5.65;;;;;;;10.12;100.00;99297.22;4485088;31;20088;-76
2021/12/31 09:07:40;;;;;;;8.02;4.97;;;;;;;10.15;100.00;99301.41;4484696;31;20100;-76
2021/12/31 09:10:08;;;;;;;10.15;5.10;;;;;;;10.22;100.00;99302.56;4484551;31;20153;-76
2021/12/31 09:12:38;;;;;;;9.45;5.07;;;;;;;10.30;100.00;99310.66;4484672;31;20100;-76
2021/12/31 09:15:06;;;;;;;6.12;4.12;;;;;;;10.39;100.00;99303.06;4484748;31;20127;-76
2021/12/31 09:17:34;;;;;;;7.47;3.60;;;;;;;10.46;100.00;99314.69;4484666;31;20797;-76
2021/12/31 09:20:01;;;;;;;9.65;5.65;;;;;;;10.63;100.00;99315.97;4484933;31;20482;-76
2021/12/31 09:22:28;;;;;;;7.18;4.97;;;;;;;10.69;100.00;99318.09;4484679;31;20507;-76
2021/12/31 09:24:58;;;;;;;10.90;5.18;;;;;;;10.60;100.00;99318.84;4484721;31;20096;-76
2021/12/31 09:27:29;;;;;;;9.70;5.05;;;;;;;10.59;100.00;99304.06;4484532;31;20157;-76
2021/12/31 09:29:56;;;;;;;9.73;5.82;;;;;;;10.68;100.00;99310.34;4484565;32;20119;-76
2021/12/31 09:32:23;;;;;;;6.95;4.78;;;;;;;10.79;100.00;99320.78;4484526;31;20104;-76
2021/12/31 09:34:51;;;;;;;6.37;3.90;;;;;;;10.79;100.00;99313.75;4484270;31;20123;-76
2021/12/31 09:37:18;;;;;;;9.00;4.57;;;;;;;10.89;100.00;99311.22;4484717;31;20095;-76
2021/12/31 09:39:46;;;;;;;8.70;4.65;;;;;;;10.96;100.00;99316.78;4484309;31;20088;-76
2021/12/31 09:42:13;;;;;;;6.35;4.22;;;;;;;11.05;98.88;99315.19;4484403;31;20081;-76
2021/12/31 09:44:41;;;;;;;9.35;4.00;;;;;;;11.22;98.64;99316.41;4484384;31;20101;-76
2021/12/31 09:47:13;;;;;;;7.45;3.97;;;;;;;11.22;97.98;99316.41;4482919;32;20116;-76
2021/12/31 09:49:40;;;;;;;7.70;4.10;;;;;;;11.39;98.16;99315.84;4484238;32;20112;-76
2021/12/31 09:52:09;;;;;;;5.57;3.35;;;;;;;11.50;98.01;99321.00;4484483;31;20082;-76
2021/12/31 09:54:40;;;;;;;5.53;3.55;;;;;;;11.63;98.05;99322.63;4484165;31;20123;-76
2021/12/31 09:57:12;;;;;;;4.87;3.50;;;;;;;11.70;96.16;99321.97;4484335;31;20100;-76
2021/12/31 09:59:41;;;;;;;5.22;2.95;;;;;;;11.78;96.93;99325.72;4484383;31;20445;-76
2021/12/31 10:02:09;;;;;;;3.72;2.47;;;;;;;11.88;95.33;99323.97;4499924;31;20146;-76
2021/12/31 10:04:54;;;;;;;5.97;2.50;;;;;;;11.88;95.03;99321.34;4499861;31;20601;-76
2021/12/31 10:07:23;;;;;;;3.67;2.05;;;;;;;12.01;95.71;99300.97;4499836;31;20125;-76
2021/12/31 10:10:09;;;;;;;4.07;1.90;;;;;;;12.02;93.58;99300.03;4499568;31;20159;-76
2021/12/31 10:12:50;;;;;;;3.58;1.40;;;;;;;12.18;92.00;99296.88;4499752;31;20071;-76
2021/12/31 10:15:19;;;;;;;3.83;1.85;;;;;;;12.27;92.14;99292.63;4499917;31;20096;-76
2021/12/31 10:17:46;;;;;;;2.42;1.42;;;;;;;12.34;91.37;99293.75;4499594;31;20442;-76
2021/12/31 10:20:14;;;;;;;3.42;1.60;;;;;;;12.50;90.55;99295.81;4499468;31;20122;-76
2021/12/31 10:22:42;;;;;;;2.80;1.65;;;;;;;12.55;90.82;99288.38;4500045;31;20092;-76
2021/12/31 10:25:25;;;;;;;2.17;1.30;;;;;;;12.62;89.43;99296.53;4499477;31;20096;-76
2021/12/31 10:28:08;;;;;;;3.28;1.55;;;;;;;12.66;89.29;99291.84;4499984;31;20705;-76
2021/12/31 10:30:35;;;;;;;2.65;1.50;;;;;;;12.78;88.30;99285.50;4501994;31;21133;-76
2021/12/31 10:33:03;;;;;;;2.37;1.25;;;;;;;12.82;88.98;99284.22;4501940;31;20100;-76
2021/12/31 10:35:46;;;;;;;2.40;1.40;;;;;;;12.86;86.82;99277.72;4501617;31;20135;-76
2021/12/31 10:38:13;;;;;;;4.10;1.67;;;;;;;12.97;88.12;99284.63;4502043;31;20126;-76
2021/12/31 10:40:43;;;;;;;2.62;1.37;;;;;;;13.06;87.95;99288.22;4501538;31;20127;-76
2021/12/31 10:43:22;;;;;;;2.35;1.42;;;;;;;13.09;87.73;99286.13;4502025;31;20084;-76
2021/12/31 10:46:00;;;;;;;3.17;1.37;;;;;;;13.07;86.85;99282.00;4501766;31;20127;-76
2021/12/31 10:48:40;;;;;;;2.47;1.50;;;;;;;13.00;86.70;99294.88;4502022;31;20505;-76
2021/12/31 10:51:09;;;;;;;2.58;1.55;;;;;;;12.92;87.93;99298.19;4501722;31;20092;-76
2021/12/31 10:53:37;;;;;;;2.22;1.50;;;;;;;12.85;87.82;99299.72;4501804;31;20088;-76
2021/12/31 10:56:09;;;;;;;2.08;1.40;;;;;;;12.85;87.99;99299.72;4501623;31;20092;-76
2021/12/31 10:58:38;;;;;;;3.42;1.48;;;;;;;12.80;87.39;99301.94;4501466;31;20570;-76
2021/12/31 11:01:08;;;;;;;1.83;1.25;;;;;;;12.89;86.89;99292.41;4491984;31;20149;-76
2021/12/31 11:03:37;;;;;;;2.35;1.45;;;;;;;12.89;86.89;99302.91;4485771;31;20084;-76
2021/12/31 11:06:07;;;;;;;2.28;1.45;;;;;;;12.90;86.92;99305.41;4485695;31;20422;-76
2021/12/31 11:08:35;;;;;;;2.70;1.55;;;;;;;12.92;86.03;99292.94;4485560;31;20124;-76
2021/12/31 11:11:03;;;;;;;2.75;1.40;;;;;;;13.09;85.26;99293.22;4485627;31;20115;-76
2021/12/31 11:13:31;;;;;;;3.12;1.48;;;;;;;13.05;84.64;99295.31;4485665;31;20093;-76
2021/12/31 11:15:59;;;;;;;3.28;1.65;;;;;;;13.17;84.95;99290.72;4485514;31;20100;-76
2021/12/31 11:18:27;;;;;;;2.45;1.42;;;;;;;13.14;84.99;99290.97;4485725;31;20163;-76
2021/12/31 11:20:58;;;;;;;3.45;1.98;;;;;;;13.09;86.32;99287.94;4485572;31;20093;-76
2021/12/31 11:23:29;;;;;;;4.90;2.20;;;;;;;13.12;86.56;99296.38;4484573;32;20084;-77
2021/12/31 11:26:05;;;;;;;3.62;2.45;;;;;;;13.01;86.02;99286.03;4485540;31;20126;-76
2021/12/31 11:28:37;;;;;;;4.05;2.70;;;;;;;12.98;86.30;99291.56;4485800;31;20115;-77
2021/12/31 11:31:19;;;;;;;3.42;2.00;;;;;;;12.96;86.70;99286.44;4485713;31;20148;-76
2021/12/31 11:33:55;;;;;;;3.45;2.50;;;;;;;12.93;86.15;99291.97;4485779;31;20087;-76
2021/12/31 11:36:54;;;;;;;2.42;1.95;;;;;;;13.03;85.58;99288.50;4485444;31;20092;-76
2021/12/31 11:39:26;;;;;;;3.40;2.20;;;;;;;12.91;85.96;99280.78;4482403;31;20571;-76